sim
Sign-in with your pilot id or email,
or register
Callsign
Passwort

Schedule Details

Flight Number: OEO6721
Departure: Atlanta Hartsfield-Jackson International Airport (KATL) at 20:35
Arrival: Munich Airport (EDDM) at 06:00

Weather Information
Getting current METAR information for KATL 181352Z 32006KT 10SM FEW008 FEW075 BKN200 OVC250 21/19 A2995 RMK AO2 SLP134 T02110189
Getting current METAR information for EDDM 181350Z 09011KT 050V120 CAVOK 19/10 Q1024 NOSIG

Schedule Frequency

Route Map